createdAt,value
2022-08-22T00:01:37.048Z,2.00
2022-08-22T00:03:08.327Z,2.15
2022-08-22T00:03:09.860Z,1.95
2022-08-22T00:04:22.875Z,1.83
2022-08-22T00:06:58.778Z,2.50
2022-08-22T00:09:35.234Z,1.98
2022-08-22T00:12:21.439Z,2.15
2022-08-22T00:15:03.477Z,2.10
2022-08-22T00:17:47.208Z,1.90
2022-08-22T00:20:28.402Z,2.70
2022-08-22T00:23:25.207Z,2.40
2022-08-22T00:26:06.987Z,2.10
2022-08-22T00:28:56.223Z,2.47
2022-08-22T00:31:22.770Z,3.60
2022-08-22T00:34:04.702Z,4.88
2022-08-22T00:36:56.598Z,2.28
2022-08-22T00:39:32.459Z,2.17
2022-08-22T00:42:01.805Z,2.38
2022-08-22T00:44:50.239Z,2.10
2022-08-22T00:47:39.871Z,2.33
2022-08-22T00:50:43.115Z,1.70
2022-08-22T00:53:39.835Z,2.70
2022-08-22T00:56:32.222Z,2.15
2022-08-22T00:59:23.058Z,2.30
2022-08-22T01:02:28.549Z,2.10
2022-08-22T01:05:20.082Z,2.40
2022-08-22T01:08:05.290Z,2.63
2022-08-22T01:10:50.864Z,4.25
2022-08-22T01:13:54.754Z,3.42
2022-08-22T01:16:54.853Z,3.05
2022-08-22T01:20:00.648Z,2.33
2022-08-22T01:23:02.092Z,2.75
2022-08-22T01:25:31.376Z,2.22
2022-08-22T01:28:23.334Z,2.40
2022-08-22T01:31:19.531Z,2.55
2022-08-22T01:34:31.694Z,2.30
2022-08-22T01:37:20.922Z,2.42
2022-08-22T01:40:23.849Z,2.75
2022-08-22T01:43:06.316Z,2.63
2022-08-22T01:46:07.148Z,3.13
2022-08-22T01:48:52.448Z,2.42
2022-08-22T01:51:28.707Z,3.00
2022-08-22T01:54:28.862Z,2.47
2022-08-22T01:57:02.515Z,2.65
2022-08-22T01:59:42.679Z,2.88
2022-08-22T02:02:41.847Z,2.92
2022-08-22T02:05:23.790Z,3.53
2022-08-22T02:07:59.282Z,3.72
2022-08-22T02:10:46.351Z,3.08
2022-08-22T02:13:13.108Z,2.90
2022-08-22T02:15:39.705Z,3.00
2022-08-22T02:18:06.138Z,3.20
2022-08-22T02:20:47.766Z,2.85
2022-08-22T02:23:43.869Z,2.60
2022-08-22T02:26:17.194Z,3.10
2022-08-22T02:28:56.951Z,3.40
2022-08-22T02:31:53.242Z,3.13
2022-08-22T02:34:43.434Z,2.75
2022-08-22T02:37:16.828Z,2.70
2022-08-22T02:39:53.340Z,2.83
2022-08-22T02:42:38.092Z,2.90
2022-08-22T02:45:29.502Z,2.55
2022-08-22T02:48:20.398Z,2.72
2022-08-22T02:50:57.809Z,2.97
2022-08-22T02:53:36.805Z,2.63
2022-08-22T02:56:14.854Z,2.53
2022-08-22T02:58:57.056Z,2.60
2022-08-22T03:01:32.353Z,3.00
2022-08-22T03:04:18.146Z,2.90
2022-08-22T03:06:59.193Z,2.88
2022-08-22T03:09:32.382Z,3.15
2022-08-22T03:12:08.281Z,2.80
2022-08-22T03:14:47.723Z,3.00
2022-08-22T03:17:49.395Z,3.08
2022-08-22T03:20:35.672Z,2.80
2022-08-22T03:23:20.299Z,3.30
2022-08-22T03:25:59.681Z,3.40
2022-08-22T03:28:37.168Z,3.95
2022-08-22T03:31:14.454Z,3.05
2022-08-22T03:33:41.539Z,3.37
2022-08-22T03:36:14.010Z,3.05
2022-08-22T03:39:17.360Z,3.33
2022-08-22T03:41:57.863Z,3.30
2022-08-22T03:44:50.623Z,3.45
2022-08-22T03:47:48.193Z,3.95
2022-08-22T03:50:26.738Z,3.83
2022-08-22T03:53:15.425Z,3.63
2022-08-22T03:55:45.557Z,3.88
2022-08-22T03:58:36.793Z,3.30
2022-08-22T04:01:19.325Z,3.35
2022-08-22T04:04:20.107Z,3.63
2022-08-22T04:07:31.491Z,3.63
2022-08-22T04:10:29.159Z,3.50
2022-08-22T04:13:09.845Z,3.83
2022-08-22T04:15:46.455Z,3.42
2022-08-22T04:18:50.100Z,3.70
2022-08-22T04:21:28.929Z,3.78
2022-08-22T04:23:55.757Z,3.67
2022-08-22T04:26:52.891Z,3.63
2022-08-22T04:29:28.454Z,3.70
2022-08-22T04:32:17.455Z,3.38
2022-08-22T04:34:56.007Z,4.13
2022-08-22T04:37:35.362Z,3.20
2022-08-22T04:40:24.366Z,3.75
2022-08-22T04:43:08.375Z,3.65
2022-08-22T04:45:41.431Z,3.45
2022-08-22T04:48:37.598Z,3.58
2022-08-22T04:51:16.039Z,3.83
2022-08-22T04:54:12.572Z,3.63
2022-08-22T04:56:54.539Z,4.07
2022-08-22T04:59:24.181Z,3.88
2022-08-22T05:01:56.662Z,2.83
2022-08-22T05:04:32.159Z,3.90
2022-08-22T05:07:22.897Z,3.70
2022-08-22T05:09:56.316Z,4.47
2022-08-22T05:12:32.838Z,3.50
2022-08-22T05:15:18.960Z,3.58
2022-08-22T05:17:53.039Z,3.63
2022-08-22T05:20:23.638Z,3.78
2022-08-22T05:22:58.528Z,3.53
2022-08-22T05:25:29.996Z,3.90
2022-08-22T05:28:28.803Z,3.97
2022-08-22T05:30:56.178Z,4.20
2022-08-22T05:33:42.779Z,3.95
2022-08-22T05:36:14.719Z,3.72
2022-08-22T05:38:47.691Z,4.05
2022-08-22T05:41:23.661Z,3.75
2022-08-22T05:43:52.131Z,3.83
2022-08-22T05:46:43.523Z,4.57
2022-08-22T05:49:32.431Z,3.88
2022-08-22T05:52:32.875Z,4.30
2022-08-22T05:55:10.397Z,4.10
2022-08-22T05:57:41.530Z,3.90
2022-08-22T06:00:16.605Z,4.20
2022-08-22T06:03:31.014Z,3.70
2022-08-22T06:06:02.807Z,3.83
2022-08-22T06:08:39.387Z,4.07
2022-08-22T06:11:15.635Z,4.38
2022-08-22T06:13:51.107Z,4.03
2022-08-22T06:16:22.779Z,4.00
2022-08-22T06:18:51.713Z,4.40
2022-08-22T06:21:32.553Z,3.75
2022-08-22T06:24:04.016Z,4.35
2022-08-22T06:26:38.136Z,4.30
2022-08-22T06:29:07.175Z,4.53
2022-08-22T06:31:45.015Z,4.28
2022-08-22T06:34:34.080Z,3.88
2022-08-22T06:37:05.568Z,4.13
2022-08-22T06:39:38.954Z,4.82
2022-08-22T06:42:16.779Z,3.80
2022-08-22T06:47:22.857Z,4.32
2022-08-22T06:49:56.417Z,4.28
2022-08-22T06:52:25.978Z,4.00
2022-08-22T06:55:00.204Z,4.13
2022-08-22T06:57:58.706Z,4.32
2022-08-22T07:00:26.744Z,4.05
2022-08-22T07:02:58.801Z,3.75
2022-08-22T07:05:34.983Z,4.07
2022-08-22T07:08:08.308Z,3.80
2022-08-22T07:10:35.054Z,3.50
2022-08-22T07:13:03.876Z,4.25
2022-08-22T07:15:34.446Z,4.30
2022-08-22T07:18:16.826Z,4.13
2022-08-22T07:20:49.829Z,4.35
2022-08-22T07:23:45.809Z,3.42
2022-08-22T07:26:30.627Z,3.95
2022-08-22T07:29:12.872Z,3.75
2022-08-22T07:31:55.082Z,4.40
2022-08-22T07:34:39.556Z,4.20
2022-08-22T07:37:21.803Z,4.13
2022-08-22T07:39:54.953Z,3.70
2022-08-22T07:42:30.348Z,3.47
2022-08-22T07:45:07.056Z,4.00
2022-08-22T07:48:11.766Z,4.32
2022-08-22T07:50:47.774Z,4.18
2022-08-22T07:53:34.742Z,3.50
2022-08-22T07:56:04.254Z,3.50
2022-08-22T07:58:35.036Z,3.50
2022-08-22T08:01:02.009Z,3.85
2022-08-22T08:03:30.995Z,3.40
2022-08-22T08:05:59.519Z,3.40
2022-08-22T08:08:42.125Z,3.90
2022-08-22T08:11:11.950Z,3.90
2022-08-22T08:13:43.524Z,3.60
2022-08-22T08:16:17.914Z,4.45
2022-08-22T08:18:48.194Z,3.60
2022-08-22T08:21:38.051Z,3.65
2022-08-22T08:24:07.996Z,3.40
2022-08-22T08:27:01.594Z,3.88
2022-08-22T08:29:28.850Z,3.83
2022-08-22T08:31:55.663Z,3.67
2022-08-22T08:34:25.198Z,3.67
2022-08-22T08:36:57.367Z,3.80
2022-08-22T08:39:35.276Z,4.22
2022-08-22T08:42:31.848Z,3.55
2022-08-22T08:45:46.547Z,3.85
2022-08-22T08:48:34.804Z,4.05
2022-08-22T08:54:26.635Z,3.95
2022-08-22T08:57:03.514Z,4.35
2022-08-22T08:59:49.276Z,4.53
2022-08-22T09:02:35.206Z,4.05
2022-08-22T09:05:35.769Z,4.13
2022-08-22T09:08:24.827Z,4.00
2022-08-22T09:11:09.888Z,3.97
2022-08-22T09:13:46.029Z,4.22
2022-08-22T09:16:52.713Z,4.80
2022-08-22T09:19:19.051Z,4.75
2022-08-22T09:22:14.483Z,4.65
2022-08-22T09:25:11.123Z,4.35
2022-08-22T09:27:49.643Z,4.30
2022-08-22T09:33:18.112Z,4.32
2022-08-22T09:35:59.598Z,4.03
2022-08-22T09:38:55.515Z,4.07
2022-08-22T09:41:36.314Z,3.80
2022-08-22T09:44:08.658Z,3.97
2022-08-22T09:47:03.201Z,3.55
2022-08-22T09:49:48.208Z,3.63
2022-08-22T09:52:42.753Z,3.88
2022-08-22T09:55:35.003Z,3.65
2022-08-22T09:58:11.278Z,3.15
2022-08-22T10:00:47.077Z,4.20
2022-08-22T10:03:31.129Z,3.00
2022-08-22T10:06:11.098Z,2.83
2022-08-22T10:08:45.769Z,3.03
2022-08-22T10:11:22.147Z,2.38
2022-08-22T10:14:01.566Z,3.33
2022-08-22T10:16:43.428Z,3.08
2022-08-22T10:19:28.779Z,2.70
2022-08-22T10:22:15.536Z,2.45
2022-08-22T10:24:56.166Z,2.33
2022-08-22T10:27:35.320Z,2.80
2022-08-22T10:30:10.311Z,2.88
2022-08-22T10:33:12.090Z,2.60
2022-08-22T10:35:51.124Z,2.63
2022-08-22T10:38:46.293Z,2.58
2022-08-22T10:41:42.671Z,2.80
2022-08-22T10:44:30.315Z,2.83
2022-08-22T10:47:07.576Z,2.42
2022-08-22T10:49:46.432Z,2.50
2022-08-22T10:52:26.592Z,2.70
2022-08-22T10:55:01.333Z,2.53
2022-08-22T10:58:13.587Z,2.75
2022-08-22T11:00:58.353Z,2.65
2022-08-22T11:03:35.432Z,2.45
2022-08-22T11:06:12.755Z,2.60
2022-08-22T11:08:59.261Z,2.90
2022-08-22T11:11:47.796Z,2.83
2022-08-22T11:14:24.863Z,3.22
2022-08-22T11:17:30.195Z,2.60
2022-08-22T11:20:38.000Z,2.83
2022-08-22T11:23:37.167Z,2.50
2022-08-22T11:26:38.291Z,2.00
2022-08-22T11:29:52.167Z,3.47
2022-08-22T11:33:03.583Z,2.95
2022-08-22T11:35:43.582Z,2.50
2022-08-22T11:38:37.086Z,2.53
2022-08-22T11:41:25.446Z,2.25
2022-08-22T11:44:03.745Z,2.67
2022-08-22T11:46:38.392Z,3.05
2022-08-22T11:49:25.684Z,2.75
2022-08-22T11:52:00.175Z,2.85
2022-08-22T11:54:42.229Z,2.95
2022-08-22T11:57:19.991Z,2.65
2022-08-22T11:59:46.497Z,2.93
2022-08-22T12:02:23.207Z,2.58
2022-08-22T12:04:57.457Z,2.50
2022-08-22T12:07:29.740Z,2.58
2022-08-22T12:10:16.593Z,2.50
2022-08-22T12:13:08.199Z,2.53
2022-08-22T12:15:53.950Z,2.30
2022-08-22T12:18:45.026Z,2.17
2022-08-22T12:21:23.176Z,2.72
2022-08-22T12:24:21.606Z,2.40
2022-08-22T12:27:11.551Z,2.30
2022-08-22T12:30:04.482Z,2.00
2022-08-22T12:33:23.048Z,2.10
2022-08-22T12:36:26.063Z,2.60
2022-08-22T12:39:32.246Z,2.45
2022-08-22T12:42:17.440Z,2.53
2022-08-22T12:45:05.705Z,2.50
2022-08-22T12:48:07.351Z,2.20
2022-08-22T12:50:54.981Z,1.98
2022-08-22T12:53:31.186Z,2.85
2022-08-22T12:56:06.242Z,2.58
2022-08-22T12:59:12.380Z,2.85
2022-08-22T13:01:48.016Z,2.20
2022-08-22T13:04:32.409Z,2.50
2022-08-22T13:07:25.366Z,2.28
2022-08-22T13:09:57.640Z,2.38
2022-08-22T13:12:36.765Z,2.38
2022-08-22T13:15:24.915Z,2.30
2022-08-22T13:17:52.744Z,2.35
2022-08-22T13:20:42.837Z,2.30
2022-08-22T13:23:41.818Z,2.33
2022-08-22T13:26:31.749Z,2.35
2022-08-22T13:29:26.173Z,2.20
2022-08-22T13:32:00.081Z,2.55
2022-08-22T13:34:45.419Z,2.40
2022-08-22T13:37:16.796Z,2.40
2022-08-22T13:39:49.102Z,2.17
2022-08-22T13:42:29.892Z,2.70
2022-08-22T13:45:02.426Z,3.10
2022-08-22T13:47:31.863Z,2.50
2022-08-22T13:50:19.911Z,2.30
2022-08-22T13:52:55.365Z,2.22
2022-08-22T13:55:31.079Z,2.58
2022-08-22T13:58:02.875Z,2.10
2022-08-22T14:01:14.464Z,2.50
2022-08-22T14:03:48.825Z,2.72
2022-08-22T14:06:37.550Z,2.47
2022-08-22T14:09:50.170Z,2.63
2022-08-22T14:12:24.544Z,2.80
2022-08-22T14:15:01.834Z,2.47
2022-08-22T14:17:42.712Z,2.63
2022-08-22T14:20:32.378Z,2.78
2022-08-22T14:23:16.114Z,2.60
2022-08-22T14:25:43.641Z,2.20
2022-08-22T14:28:27.571Z,2.67
2022-08-22T14:31:01.890Z,2.78
2022-08-22T14:33:37.029Z,2.08
2022-08-22T14:36:20.705Z,2.28
2022-08-22T14:38:53.436Z,2.38
2022-08-22T14:41:55.501Z,2.30
2022-08-22T14:44:37.870Z,2.42
2022-08-22T14:47:32.210Z,2.42
2022-08-22T14:49:59.354Z,2.03
2022-08-22T14:52:42.594Z,2.42
2022-08-22T14:55:22.272Z,2.10
2022-08-22T14:58:03.533Z,2.33
2022-08-22T15:00:39.558Z,2.20
2022-08-22T15:03:15.881Z,2.35
2022-08-22T15:05:57.822Z,2.38
2022-08-22T15:08:46.326Z,2.30
2022-08-22T15:11:20.555Z,2.35
2022-08-22T15:14:25.538Z,2.42
2022-08-22T15:16:57.000Z,2.80
2022-08-22T15:19:26.103Z,2.05
2022-08-22T15:22:14.998Z,2.88
2022-08-22T15:24:47.197Z,2.08
2022-08-22T15:27:19.236Z,2.25
2022-08-22T15:29:52.667Z,2.10
2022-08-22T15:32:28.887Z,2.60
2022-08-22T15:35:27.638Z,2.28
2022-08-22T15:38:02.683Z,2.35
2022-08-22T15:40:42.803Z,2.47
2022-08-22T15:43:34.840Z,2.40
2022-08-22T15:46:18.068Z,2.20
2022-08-22T15:48:56.886Z,2.50
2022-08-22T15:51:41.492Z,2.03
2022-08-22T15:54:24.293Z,2.13
2022-08-22T15:57:17.248Z,2.30
2022-08-22T15:59:57.621Z,2.30
2022-08-22T16:02:40.724Z,2.33
2022-08-22T16:05:07.027Z,2.30
2022-08-22T16:07:43.226Z,2.40
2022-08-22T16:10:31.805Z,2.03
2022-08-22T16:13:13.391Z,2.20
2022-08-22T16:15:54.116Z,2.03
2022-08-22T16:18:39.070Z,2.05
2022-08-22T16:21:05.403Z,2.00
2022-08-22T16:23:53.633Z,2.35
2022-08-22T16:26:40.496Z,2.20
2022-08-22T16:29:26.903Z,2.22
2022-08-22T16:31:55.976Z,2.92
2022-08-22T16:34:37.282Z,2.78
2022-08-22T16:37:03.635Z,2.42
2022-08-22T16:39:48.334Z,2.45
2022-08-22T16:42:22.525Z,2.63
2022-08-22T16:45:18.163Z,2.03
2022-08-22T16:47:52.711Z,1.92
2022-08-22T16:50:34.096Z,2.17
2022-08-22T16:53:00.525Z,1.85
2022-08-22T16:55:29.781Z,2.13
2022-08-22T16:58:14.932Z,2.00
2022-08-22T17:01:29.200Z,2.22
2022-08-22T17:04:24.055Z,2.35
2022-08-22T17:07:10.511Z,2.15
2022-08-22T17:09:51.878Z,2.20
2022-08-22T17:12:30.351Z,2.25
2022-08-22T17:15:15.232Z,2.42
2022-08-22T17:18:13.868Z,2.20
2022-08-22T17:21:06.978Z,2.13
2022-08-22T17:23:41.056Z,2.22
2022-08-22T17:26:36.634Z,2.20
2022-08-22T17:29:15.172Z,2.05
2022-08-22T17:31:58.904Z,2.33
2022-08-22T17:34:49.566Z,2.08
2022-08-22T17:37:22.360Z,1.90
2022-08-22T17:40:11.396Z,2.28
2022-08-22T17:42:40.675Z,2.00
2022-08-22T17:45:32.384Z,2.47
2022-08-22T17:48:24.812Z,2.50
2022-08-22T17:50:57.182Z,2.28
2022-08-22T17:53:35.500Z,6.80
2022-08-22T17:56:18.843Z,11.38
2022-08-22T17:58:53.488Z,3.33
2022-08-22T18:01:47.974Z,2.38
2022-08-22T18:04:47.580Z,1.98
2022-08-22T18:07:14.017Z,2.13
2022-08-22T18:09:51.811Z,2.30
2022-08-22T18:12:34.410Z,2.45
2022-08-22T18:15:19.486Z,2.50
2022-08-22T18:18:07.823Z,1.92
2022-08-22T18:20:56.643Z,2.25
2022-08-22T18:23:36.096Z,2.20
2022-08-22T18:26:27.525Z,2.10
2022-08-22T18:29:17.064Z,1.95
2022-08-22T18:32:05.241Z,2.00
2022-08-22T18:34:56.155Z,2.13
2022-08-22T18:37:46.232Z,2.03
2022-08-22T18:40:37.997Z,1.90
2022-08-22T18:43:24.139Z,2.75
2022-08-22T18:45:50.583Z,2.35
2022-08-22T18:48:59.232Z,2.30
2022-08-22T18:51:38.621Z,2.10
2022-08-22T18:54:05.110Z,2.10
2022-08-22T18:56:31.475Z,2.45
2022-08-22T18:59:22.571Z,2.53
2022-08-22T19:02:11.211Z,2.55
2022-08-22T19:05:05.369Z,2.38
2022-08-22T19:08:00.211Z,2.17
2022-08-22T19:10:54.088Z,2.47
2022-08-22T19:13:47.434Z,2.45
2022-08-22T19:16:26.180Z,2.35
2022-08-22T19:19:00.340Z,2.58
2022-08-22T19:21:55.530Z,2.03
2022-08-22T19:24:27.782Z,2.60
2022-08-22T19:27:20.703Z,2.30
2022-08-22T19:29:47.079Z,2.10
2022-08-22T19:32:49.978Z,1.98
2022-08-22T19:35:25.437Z,2.00
2022-08-22T19:37:57.899Z,2.03
2022-08-22T19:40:53.436Z,2.10
2022-08-22T19:43:36.891Z,3.33
2022-08-22T19:46:10.874Z,4.70
2022-08-22T19:48:47.493Z,3.00
2022-08-22T19:51:28.084Z,2.50
2022-08-22T19:54:17.338Z,2.60
2022-08-22T19:57:15.949Z,2.55
2022-08-22T19:59:52.985Z,2.50
2022-08-22T20:02:38.793Z,2.30
2022-08-22T20:05:38.074Z,2.17
2022-08-22T20:08:17.586Z,2.72
2022-08-22T20:10:55.819Z,2.50
2022-08-22T20:13:26.794Z,2.58
2022-08-22T20:16:13.359Z,2.42
2022-08-22T20:19:17.688Z,2.40
2022-08-22T20:22:02.311Z,2.17
2022-08-22T20:24:40.213Z,2.35
2022-08-22T20:27:17.096Z,2.67
2022-08-22T20:29:51.139Z,2.30
2022-08-22T20:32:20.395Z,2.42
2022-08-22T20:34:50.661Z,2.35
2022-08-22T20:37:39.853Z,2.75
2022-08-22T20:40:55.377Z,2.25
2022-08-22T20:43:34.390Z,4.78
2022-08-22T20:46:12.561Z,4.15
2022-08-22T20:48:43.123Z,3.88
2022-08-22T20:51:15.505Z,4.07
2022-08-22T20:53:42.064Z,3.25
2022-08-22T20:56:09.736Z,3.53
2022-08-22T20:58:39.773Z,3.53
2022-08-22T21:01:07.287Z,3.22
2022-08-22T21:03:44.615Z,2.88
2022-08-22T21:06:20.346Z,3.05
2022-08-22T21:09:11.453Z,3.10
2022-08-22T21:11:40.483Z,3.15
2022-08-22T21:14:25.971Z,3.00
2022-08-22T21:16:53.100Z,2.78
2022-08-22T21:19:24.980Z,3.17
2022-08-22T21:21:51.873Z,3.13
2022-08-22T21:24:18.504Z,2.65
2022-08-22T21:26:55.628Z,3.25
2022-08-22T21:29:27.021Z,2.77
2022-08-22T21:32:31.673Z,2.95
2022-08-22T21:34:58.905Z,3.10
2022-08-22T21:37:45.994Z,3.00
2022-08-22T21:40:17.658Z,2.60
2022-08-22T21:43:07.373Z,3.10
2022-08-22T21:45:42.581Z,2.83
2022-08-22T21:48:43.670Z,2.72
2022-08-22T21:51:38.709Z,2.80
2022-08-22T21:54:28.076Z,2.90
2022-08-22T21:56:57.954Z,3.28
2022-08-22T21:59:51.188Z,3.13
2022-08-22T22:02:37.367Z,3.35
2022-08-22T22:05:17.547Z,3.03
2022-08-22T22:07:46.846Z,3.10
2022-08-22T22:10:18.499Z,2.92
2022-08-22T22:12:47.791Z,2.80
2022-08-22T22:15:19.192Z,2.83
2022-08-22T22:17:45.812Z,3.50
2022-08-22T22:20:15.232Z,2.97
2022-08-22T22:22:46.029Z,2.75
2022-08-22T22:25:38.735Z,2.80
2022-08-22T22:28:03.527Z,3.05
2022-08-22T22:30:30.070Z,2.88
2022-08-22T22:32:56.463Z,3.08
2022-08-22T22:35:22.809Z,3.40
2022-08-22T22:37:49.223Z,3.30
2022-08-22T22:40:15.684Z,2.88
2022-08-22T22:42:42.734Z,2.70
2022-08-22T22:45:10.758Z,2.40
2022-08-22T22:47:38.193Z,3.00
2022-08-22T22:50:05.694Z,2.72
2022-08-22T22:52:32.109Z,2.70
2022-08-22T22:54:58.535Z,2.75
2022-08-22T22:57:25.677Z,3.30
2022-08-22T22:59:52.226Z,2.83
2022-08-22T23:02:21.897Z,3.25
2022-08-22T23:04:55.235Z,2.92
2022-08-22T23:07:26.723Z,2.72
2022-08-22T23:09:56.035Z,3.00
2022-08-22T23:12:25.177Z,2.92
2022-08-22T23:14:51.610Z,3.35
2022-08-22T23:17:19.258Z,2.88
2022-08-22T23:19:46.304Z,3.53
2022-08-22T23:22:14.153Z,3.28
2022-08-22T23:24:40.783Z,3.25
2022-08-22T23:27:08.789Z,3.17
2022-08-22T23:29:37.120Z,3.88
2022-08-22T23:32:04.560Z,3.53
2022-08-22T23:34:37.209Z,3.40
2022-08-22T23:37:06.640Z,2.90
2022-08-22T23:39:34.548Z,2.97
2022-08-22T23:42:01.911Z,3.15
2022-08-22T23:44:32.776Z,3.20
2022-08-22T23:47:00.084Z,3.20
2022-08-22T23:49:28.024Z,3.53
2022-08-22T23:51:55.158Z,3.45
2022-08-22T23:54:22.494Z,3.38
2022-08-22T23:56:55.075Z,3.13
2022-08-22T23:59:30.747Z,3.10
